Aeroporto :







RITROVATECI SU...

 
LOGIN :

Iscrizione | Disclaimer

   EN    FR    IT 

 









Sommario :    VFR   VFR Marginale   IFR   IFR Intensivo   IFR Molto Intensivo
Visibilità : 
Base nubi : 
>= 8 km
>= 3000ft
5 / 8 km
1000 / 3000 ft
1500m / 5 km
500 / 1000 ft
800 / 1500m
200 / 500 ft
< 800m
< 200 ft
Simboli :   Temporali  Nebbia  Neve Forte  Precipitazioni Forti  Vento > 20 kt







- Altitudine del aeroporto : 39 ft
- Codice IATA : YNA


CYNA - Natashquan

ULTIMO METAR :
  • 180600Z AUTO 01010G15KT 9SM CLR 05/M00 A3018 RMK SLP223

METARs OBSOLETI :
  • 180500Z AUTO 01012KT 9SM CLR 05/M00 A3017 RMK SLP219
  • 180400Z AUTO 01012G20KT 9SM CLR 06/M00 A3016 RMK SLP216

TAF TAF CYNA
Valido dal 18 a 02 ore il 18 a 14 ore UTC


180138Z 1802/1814 35005KT P6SM SKC
BECMG 1811/1813 02012KT RMK FCST BASED ON AUTO OBS. NXT FCST BY 180800Z
Nessun NOTAM noto per questo aeroporto.



MetMap, La meteo Aeronautica in un colpo d'occhio ! - Copyright ORBIFLY Dicembre 2007 - Disclaimer

ORBIFLY MET'MAP TEAM :

Programmazione e sviluppo : Alexandra Zaïnal
Concezione e sviluppo : Baudouin d'Aumeries
Co-Programmazione e sviluppo : Marc-Olivier Méhu
Supporto tecnico e logistico : Manuel Goepfert
Aiuto per la traduzione : Arnaldo La Scala

Contatto : metmap@orbifly.com




FONTI E CREDITI :

   NOAA